Time;durP1;ratioP1;P1;durP2;ratioP2;P2;SDS_P1;SDS_P2;PMS_P1;PMS_P2;Temp;Humidity;BMP_temperature;BMP_pressure;BME280_temperature;BME280_humidity;BME280_pressure;Samples;Min_cycle;Max_cycle;Signal;HPM_P1;HPM_P2
2022/05/03 00:00:03;;;;;;;8.03;7.43;;;11.90;99.90;;;;;;5081071;28;20651;-85
2022/05/03 00:02:44;;;;;;;6.50;6.00;;;12.00;99.90;;;;;;5082924;28;21012;-84
2022/05/03 00:05:16;;;;;;;7.60;7.10;;;12.20;99.90;;;;;;5079180;28;20665;-83
2022/05/03 00:07:47;;;;;;;7.07;6.57;;;11.80;99.90;;;;;;5082091;28;20620;-84
2022/05/03 00:10:16;;;;;;;8.20;7.70;;;12.20;99.90;;;;;;5084826;28;20655;-84
2022/05/03 00:12:48;;;;;;;6.93;6.37;;;12.00;99.90;;;;;;5083622;28;20826;-84
2022/05/03 00:15:18;;;;;;;7.50;6.77;;;11.70;99.90;;;;;;5082137;28;20635;-84
2022/05/03 00:17:46;;;;;;;7.47;6.97;;;11.90;99.90;;;;;;5081606;28;20624;-84
2022/05/03 00:20:14;;;;;;;8.17;7.40;;;11.90;99.90;;;;;;5081301;28;20640;-84
2022/05/03 00:22:41;;;;;;;8.10;7.50;;;12.20;99.90;;;;;;5083273;28;20709;-83
2022/05/03 00:25:08;;;;;;;8.40;7.80;;;12.00;99.90;;;;;;5082524;28;20600;-84
2022/05/03 00:27:36;;;;;;;8.20;7.60;;;12.40;99.90;;;;;;5083307;28;20640;-84
2022/05/03 00:30:04;;;;;;;7.80;7.00;;;12.00;99.90;;;;;;5083122;28;20655;-84
2022/05/03 00:32:32;;;;;;;7.50;7.00;;;12.20;99.90;;;;;;5081357;28;20619;-84
2022/05/03 00:35:01;;;;;;;7.30;6.60;;;12.20;99.90;;;;;;5080598;28;20624;-83
2022/05/03 00:37:28;;;;;;;8.43;7.83;;;12.00;99.90;;;;;;5079313;28;20655;-83
2022/05/03 00:39:55;;;;;;;7.93;7.33;;;12.30;99.90;;;;;;5083055;28;21026;-83
2022/05/03 00:42:25;;;;;;;7.47;6.97;;;12.20;99.90;;;;;;5082786;28;20631;-84
2022/05/03 00:45:05;;;;;;;7.93;7.20;;;12.20;99.90;;;;;;5082792;28;20962;-83
2022/05/03 00:47:51;;;;;;;8.50;7.90;;;12.20;99.90;;;;;;5081104;28;20627;-84
2022/05/03 00:50:34;;;;;;;8.13;7.53;;;12.10;99.90;;;;;;5082610;28;20675;-84
2022/05/03 00:53:10;;;;;;;8.10;7.50;;;12.10;99.90;;;;;;5079099;28;20643;-83
2022/05/03 00:56:17;;;;;;;7.93;7.33;;;12.00;99.90;;;;;;5083923;28;20613;-83
2022/05/03 00:59:03;;;;;;;7.80;7.10;;;11.90;99.90;;;;;;5082679;28;20592;-83
2022/05/03 01:01:50;;;;;;;8.90;8.20;;;11.90;99.90;;;;;;5081266;28;20643;-83
2022/05/03 01:04:24;;;;;;;8.10;7.50;;;11.70;99.90;;;;;;5081157;28;20700;-83
2022/05/03 01:06:56;;;;;;;8.07;7.47;;;11.30;99.90;;;;;;5080899;28;21053;-83
2022/05/03 01:09:32;;;;;;;9.07;8.27;;;11.80;99.90;;;;;;5080741;28;20631;-85
2022/05/03 01:12:13;;;;;;;8.93;8.37;;;11.40;99.90;;;;;;5082092;28;20608;-84
2022/05/03 01:14:51;;;;;;;7.73;7.13;;;11.60;99.90;;;;;;5078734;28;20615;-84
2022/05/03 01:17:25;;;;;;;7.33;6.83;;;11.60;99.90;;;;;;5079855;28;20616;-83
2022/05/03 01:19:59;;;;;;;9.63;8.93;;;11.50;99.90;;;;;;5078589;28;20651;-83
2022/05/03 01:23:09;;;;;;;9.37;8.57;;;11.30;99.90;;;;;;5082020;28;20631;-85
2022/05/03 01:25:52;;;;;;;9.27;8.57;;;11.50;99.90;;;;;;5075253;28;21116;-83
2022/05/03 01:28:26;;;;;;;8.37;7.67;;;11.30;99.90;;;;;;5082550;28;20624;-83
2022/05/03 01:30:58;;;;;;;9.90;9.20;;;11.20;99.90;;;;;;5079950;28;20652;-83
2022/05/03 01:33:32;;;;;;;8.10;7.50;;;10.70;99.90;;;;;;5080083;28;20620;-83
2022/05/03 01:36:00;;;;;;;8.50;7.80;;;11.10;99.90;;;;;;5079210;28;20677;-83
2022/05/03 01:38:35;;;;;;;8.80;8.20;;;11.00;99.90;;;;;;5080722;28;20711;-83
2022/05/03 01:41:18;;;;;;;8.27;7.77;;;10.60;99.90;;;;;;5082810;28;20692;-85
2022/05/03 01:44:09;;;;;;;8.47;7.87;;;10.70;99.90;;;;;;5071270;28;20666;-83
2022/05/03 01:46:38;;;;;;;8.17;7.67;;;10.80;99.90;;;;;;5079387;28;20623;-83
2022/05/03 01:52:24;;;;;;;8.70;8.10;;;10.80;99.90;;;;;;5085015;28;20564;-83
2022/05/03 01:55:08;;;;;;;8.27;7.63;;;10.60;99.90;;;;;;5082591;28;21110;-83
2022/05/03 01:57:47;;;;;;;9.67;9.00;;;10.50;99.90;;;;;;5082936;28;20623;-83
2022/05/03 02:00:13;;;;;;;9.00;8.40;;;10.50;99.90;;;;;;5085013;28;20679;-83
2022/05/03 02:02:54;;;;;;;10.40;9.50;;;10.50;99.90;;;;;;5084459;28;21186;-83
2022/05/03 02:05:51;;;;;;;9.27;8.67;;;10.70;99.90;;;;;;5083301;28;20623;-83
2022/05/03 02:08:21;;;;;;;10.33;9.53;;;10.30;99.90;;;;;;5084158;28;21018;-83
2022/05/03 02:10:59;;;;;;;9.57;8.83;;;9.90;99.90;;;;;;5085468;28;20648;-83
2022/05/03 02:16:45;;;;;;;10.37;9.67;;;9.90;99.90;;;;;;5084255;28;20583;-83
2022/05/03 02:19:30;;;;;;;10.07;9.40;;;10.20;99.90;;;;;;5085764;28;20628;-83
2022/05/03 02:22:07;;;;;;;10.30;9.60;;;10.10;99.90;;;;;;5086754;28;21186;-83
2022/05/03 02:24:45;;;;;;;10.37;9.63;;;10.30;99.90;;;;;;5085842;28;20650;-83
2022/05/03 02:27:13;;;;;;;11.20;10.40;;;9.80;99.90;;;;;;5085156;28;20608;-83
2022/05/03 02:29:46;;;;;;;10.80;10.10;;;9.70;99.90;;;;;;5085693;28;20656;-83
2022/05/03 02:32:13;;;;;;;10.83;10.13;;;10.10;99.90;;;;;;5084697;28;20624;-83
2022/05/03 02:34:48;;;;;;;11.77;11.00;;;9.60;99.90;;;;;;5084703;28;20640;-82
2022/05/03 02:37:18;;;;;;;11.07;10.27;;;10.00;99.90;;;;;;5083245;28;20684;-82
2022/05/03 02:39:51;;;;;;;11.13;10.33;;;9.70;99.90;;;;;;5082836;28;20666;-83
2022/05/03 02:42:20;;;;;;;11.53;10.73;;;9.60;99.90;;;;;;5088243;28;20673;-83
2022/05/03 02:44:47;;;;;;;11.57;10.73;;;9.40;99.90;;;;;;5084403;28;20656;-83
2022/05/03 02:47:27;;;;;;;12.33;11.47;;;9.70;99.90;;;;;;5082076;28;21260;-83
2022/05/03 02:50:05;;;;;;;11.47;10.80;;;9.40;99.90;;;;;;5084626;28;20639;-84
2022/05/03 02:52:43;;;;;;;12.20;11.30;;;9.70;99.90;;;;;;5083240;28;21256;-83
2022/05/03 02:55:19;;;;;;;12.37;11.57;;;9.40;99.90;;;;;;5083277;28;20587;-85
2022/05/03 02:57:59;;;;;;;12.80;11.93;;;9.80;99.90;;;;;;5086143;28;20969;-84
2022/05/03 03:03:38;;;;;;;12.87;11.97;;;9.70;99.90;;;;;;5081914;28;20979;-84
2022/05/03 03:06:10;;;;;;;13.97;12.97;;;9.80;99.90;;;;;;5079003;28;20624;-84
2022/05/03 03:08:45;;;;;;;13.87;12.90;;;9.70;99.90;;;;;;5081871;28;20627;-84
2022/05/03 03:11:18;;;;;;;14.27;13.27;;;9.30;99.90;;;;;;5084425;28;20659;-84
2022/05/03 03:13:59;;;;;;;15.10;14.10;;;9.00;99.90;;;;;;5085854;28;20612;-84
2022/05/03 03:16:31;;;;;;;15.57;14.30;;;9.00;99.90;;;;;;5082857;28;20628;-84
2022/05/03 03:18:59;;;;;;;16.30;15.07;;;9.40;99.90;;;;;;5083313;28;20612;-84
2022/05/03 03:21:32;;;;;;;16.10;15.10;;;9.40;99.90;;;;;;5086000;28;21117;-84
2022/05/03 03:24:01;;;;;;;15.43;14.43;;;9.40;99.90;;;;;;5085122;28;20761;-84
2022/05/03 03:26:30;;;;;;;15.50;14.40;;;9.10;99.90;;;;;;5085239;28;20631;-84
2022/05/03 03:29:00;;;;;;;14.87;13.90;;;9.10;99.90;;;;;;5084843;28;20627;-84
2022/05/03 03:31:27;;;;;;;15.27;14.23;;;9.20;99.90;;;;;;5083209;28;20682;-83
2022/05/03 03:33:55;;;;;;;15.17;14.07;;;9.00;99.90;;;;;;5084305;28;20635;-83
2022/05/03 03:36:24;;;;;;;15.53;14.33;;;9.40;99.90;;;;;;5083376;28;20628;-84
2022/05/03 03:38:52;;;;;;;15.47;14.47;;;8.80;99.90;;;;;;5081623;28;20627;-84
2022/05/03 03:41:19;;;;;;;15.90;14.73;;;9.30;99.90;;;;;;5083651;28;20645;-84
2022/05/03 03:43:46;;;;;;;15.00;13.93;;;9.50;99.90;;;;;;5085265;28;20691;-84
2022/05/03 03:46:13;;;;;;;14.00;13.10;;;8.80;99.90;;;;;;5081442;28;21227;-84
2022/05/03 03:48:40;;;;;;;14.60;13.70;;;9.20;99.90;;;;;;5082433;28;20632;-84
2022/05/03 03:51:07;;;;;;;14.90;13.90;;;8.80;99.90;;;;;;5082075;28;20671;-84
2022/05/03 03:53:34;;;;;;;14.47;13.47;;;8.70;99.90;;;;;;5081429;28;20710;-84
2022/05/03 03:56:03;;;;;;;14.90;13.90;;;8.70;99.90;;;;;;5082806;28;20693;-85
2022/05/03 03:58:31;;;;;;;13.40;12.47;;;8.60;99.90;;;;;;5081851;28;20632;-84
2022/05/03 04:00:58;;;;;;;14.90;13.90;;;9.00;99.90;;;;;;5082205;28;21237;-84
2022/05/03 04:03:27;;;;;;;15.70;14.40;;;9.00;99.90;;;;;;5085100;28;21343;-85
2022/05/03 04:05:54;;;;;;;15.20;14.00;;;8.80;99.90;;;;;;5079301;28;20704;-86
2022/05/03 04:08:21;;;;;;;14.90;13.70;;;8.70;99.90;;;;;;5082864;28;20620;-85
2022/05/03 04:10:49;;;;;;;14.80;13.90;;;9.00;99.90;;;;;;5084355;28;20644;-85
2022/05/03 04:13:18;;;;;;;16.60;15.60;;;8.70;99.90;;;;;;5082659;28;21197;-85
2022/05/03 04:15:45;;;;;;;15.37;14.37;;;9.00;99.90;;;;;;5083166;28;20982;-84
2022/05/03 04:18:12;;;;;;;15.23;14.13;;;8.60;99.90;;;;;;5082796;28;20628;-84
2022/05/03 04:20:38;;;;;;;15.37;14.37;;;9.00;99.90;;;;;;5082326;28;20663;-85
2022/05/03 04:23:05;;;;;;;15.00;14.00;;;8.60;99.90;;;;;;5082224;28;20655;-85
2022/05/03 04:25:32;;;;;;;15.60;14.40;;;9.00;99.90;;;;;;5082929;28;20671;-84
2022/05/03 04:27:59;;;;;;;15.77;14.67;;;8.90;99.90;;;;;;5084166;28;20660;-84
2022/05/03 04:30:27;;;;;;;13.97;12.97;;;8.50;99.90;;;;;;5082990;28;21065;-84
2022/05/03 04:32:54;;;;;;;15.73;14.63;;;8.60;99.90;;;;;;5080856;28;20624;-84
2022/05/03 04:35:21;;;;;;;16.70;15.50;;;8.40;99.90;;;;;;5082425;28;20632;-85
2022/05/03 04:37:47;;;;;;;16.27;15.10;;;8.40;99.90;;;;;;5083594;28;20620;-85
2022/05/03 04:40:14;;;;;;;16.57;15.13;;;8.50;99.90;;;;;;5083406;28;20648;-85
2022/05/03 04:42:41;;;;;;;15.53;14.40;;;8.50;99.90;;;;;;5082040;28;20636;-85
2022/05/03 04:45:09;;;;;;;15.87;14.77;;;9.00;99.90;;;;;;5077007;28;20692;-85
2022/05/03 04:47:37;;;;;;;16.20;14.90;;;9.00;99.90;;;;;;5083402;28;20636;-85
2022/05/03 04:50:04;;;;;;;16.60;15.57;;;8.80;99.90;;;;;;5081510;28;20659;-85
2022/05/03 04:52:32;;;;;;;17.27;16.00;;;8.90;99.90;;;;;;5077322;28;20632;-85
2022/05/03 04:54:58;;;;;;;17.87;16.57;;;9.10;99.90;;;;;;5080388;28;20616;-84
2022/05/03 04:57:25;;;;;;;16.50;15.40;;;9.20;99.90;;;;;;5072768;28;20655;-84
2022/05/03 04:59:52;;;;;;;17.63;16.43;;;8.70;99.90;;;;;;5081039;28;20651;-84
2022/05/03 05:02:18;;;;;;;19.23;17.67;;;9.20;99.90;;;;;;5081173;28;20627;-84
2022/05/03 05:04:47;;;;;;;20.67;19.27;;;8.70;99.90;;;;;;5080413;28;21619;-84
2022/05/03 05:07:13;;;;;;;19.50;17.90;;;9.10;99.90;;;;;;5082203;28;21089;-84
2022/05/03 05:10:23;;;;;;;18.43;17.13;;;9.30;99.90;;;;;;5083931;28;21256;-83
2022/05/03 05:12:27;;;;;;;19.47;17.97;;;9.40;99.90;;;;;;5084312;28;20891;-84
2022/05/03 05:14:54;;;;;;;19.57;17.77;;;9.10;99.90;;;;;;5081670;28;21178;-84
2022/05/03 05:17:21;;;;;;;18.23;16.70;;;9.70;99.90;;;;;;5083972;28;20615;-83
2022/05/03 05:19:49;;;;;;;19.10;17.77;;;9.50;99.90;;;;;;5078971;28;20649;-83
2022/05/03 05:22:16;;;;;;;18.80;17.50;;;9.30;99.90;;;;;;5084293;28;20969;-83
2022/05/03 05:24:44;;;;;;;20.07;18.37;;;9.70;99.90;;;;;;5085368;28;21257;-83
2022/05/03 05:27:10;;;;;;;18.67;17.37;;;9.40;99.90;;;;;;5084855;28;20616;-83
2022/05/03 05:29:37;;;;;;;17.83;16.63;;;9.50;99.90;;;;;;5085950;28;20658;-83
2022/05/03 05:32:04;;;;;;;18.90;17.60;;;9.50;99.90;;;;;;5088484;28;20636;-83
2022/05/03 05:34:31;;;;;;;19.30;17.97;;;10.00;99.90;;;;;;5087775;28;20713;-83
2022/05/03 05:36:59;;;;;;;21.27;19.77;;;9.60;99.90;;;;;;5087644;28;20612;-83
2022/05/03 05:39:26;;;;;;;20.53;19.13;;;9.90;99.90;;;;;;5085407;28;20632;-83
2022/05/03 05:41:55;;;;;;;19.70;18.33;;;9.80;99.90;;;;;;5084618;28;20621;-84
2022/05/03 05:44:22;;;;;;;21.33;19.37;;;10.30;99.90;;;;;;5083063;28;21175;-85
2022/05/03 05:46:49;;;;;;;19.73;18.23;;;10.40;99.90;;;;;;5087323;28;20623;-84
2022/05/03 05:49:16;;;;;;;20.03;18.60;;;10.40;99.90;;;;;;5085544;28;21198;-84
2022/05/03 05:51:42;;;;;;;19.47;18.17;;;10.50;99.90;;;;;;5083316;28;20630;-84
2022/05/03 05:54:09;;;;;;;19.80;18.17;;;10.20;99.90;;;;;;5081326;28;20631;-84
2022/05/03 05:56:36;;;;;;;18.10;16.60;;;10.70;99.90;;;;;;5087449;28;20656;-84
2022/05/03 05:59:03;;;;;;;17.93;16.70;;;10.70;99.90;;;;;;5081628;28;21009;-84
2022/05/03 06:01:37;;;;;;;18.80;17.37;;;10.40;99.90;;;;;;5082844;28;20979;-85
2022/05/03 06:04:03;;;;;;;18.20;16.70;;;10.60;99.90;;;;;;5082315;28;20631;-84
2022/05/03 06:06:32;;;;;;;18.43;17.13;;;10.70;99.90;;;;;;5087320;28;20635;-85
2022/05/03 06:08:59;;;;;;;17.13;15.87;;;11.10;99.90;;;;;;5087167;28;20830;-84
2022/05/03 06:11:29;;;;;;;16.60;15.40;;;11.00;99.90;;;;;;5084682;28;20636;-85
2022/05/03 06:13:55;;;;;;;17.20;15.37;;;11.40;99.90;;;;;;5083267;28;20612;-85
2022/05/03 06:16:22;;;;;;;18.37;16.73;;;11.00;99.90;;;;;;5078534;28;20642;-84
2022/05/03 06:18:49;;;;;;;17.30;15.80;;;11.30;99.90;;;;;;5083850;28;20676;-85
2022/05/03 06:21:16;;;;;;;16.70;15.33;;;11.40;99.90;;;;;;5088259;28;20608;-85
2022/05/03 06:23:43;;;;;;;16.53;15.13;;;11.80;99.90;;;;;;5082871;28;20624;-84
2022/05/03 06:26:10;;;;;;;16.20;15.00;;;11.80;99.90;;;;;;5087688;28;20664;-84
2022/05/03 06:28:39;;;;;;;15.93;14.60;;;11.50;99.90;;;;;;5087110;28;20658;-85
2022/05/03 06:31:06;;;;;;;16.97;15.57;;;12.10;99.90;;;;;;5086169;28;20984;-85
2022/05/03 06:33:33;;;;;;;18.00;16.60;;;12.20;99.90;;;;;;5086242;28;20623;-85
2022/05/03 06:35:59;;;;;;;18.40;16.90;;;12.00;99.90;;;;;;5087101;28;20616;-85
2022/05/03 06:38:26;;;;;;;16.73;15.33;;;12.10;99.90;;;;;;5088295;28;21026;-84
2022/05/03 06:40:53;;;;;;;15.87;14.17;;;12.50;99.90;;;;;;5086793;28;20630;-85
2022/05/03 06:43:20;;;;;;;16.43;15.17;;;12.60;99.90;;;;;;5086302;28;20619;-86
2022/05/03 06:45:48;;;;;;;15.40;14.10;;;12.70;99.90;;;;;;5085726;28;20894;-86
2022/05/03 06:48:16;;;;;;;14.80;13.50;;;12.70;99.90;;;;;;5083449;28;21072;-85
2022/05/03 06:50:43;;;;;;;15.70;14.00;;;12.90;99.90;;;;;;5084134;28;21033;-85
2022/05/03 06:53:10;;;;;;;15.03;13.83;;;13.00;99.90;;;;;;5084222;28;20652;-84
2022/05/03 06:55:36;;;;;;;15.17;14.10;;;13.10;99.90;;;;;;5078347;28;21170;-86
2022/05/03 06:58:03;;;;;;;15.50;14.03;;;13.30;99.90;;;;;;5084599;28;21016;-86
2022/05/03 07:00:30;;;;;;;15.77;14.53;;;13.40;99.90;;;;;;5086109;28;20698;-86
2022/05/03 07:02:58;;;;;;;17.33;13.97;;;13.40;99.90;;;;;;5086263;28;21009;-86
2022/05/03 07:05:25;;;;;;;14.67;13.57;;;13.50;99.90;;;;;;5084374;28;20990;-86
2022/05/03 07:07:52;;;;;;;14.23;13.23;;;13.60;99.90;;;;;;5083146;28;20667;-86
2022/05/03 07:10:19;;;;;;;13.87;12.87;;;13.70;99.90;;;;;;5080563;28;20943;-87
2022/05/03 07:12:46;;;;;;;14.60;13.50;;;13.70;99.90;;;;;;5084477;28;20631;-86
2022/05/03 07:15:13;;;;;;;15.07;13.90;;;13.80;99.90;;;;;;5078966;28;20608;-86
2022/05/03 07:23:18;;;;;;;14.67;13.60;;;14.20;99.90;;;;;;5089695;28;20615;-86
2022/05/03 07:25:45;;;;;;;13.17;12.30;;;14.10;99.90;;;;;;5084279;28;20672;-86
2022/05/03 07:28:12;;;;;;;14.80;13.60;;;14.10;99.90;;;;;;5084250;28;20668;-87
2022/05/03 07:30:39;;;;;;;14.50;13.37;;;14.20;99.90;;;;;;5082275;28;20623;-86
2022/05/03 07:33:06;;;;;;;14.23;13.13;;;14.40;99.90;;;;;;5082716;28;20624;-87
2022/05/03 07:35:34;;;;;;;13.20;12.20;;;14.60;99.90;;;;;;5081876;28;20651;-88
2022/05/03 07:38:01;;;;;;;14.77;13.43;;;14.60;99.90;;;;;;5083421;28;20654;-85
2022/05/03 07:40:28;;;;;;;14.03;13.03;;;14.80;99.90;;;;;;5084246;28;20628;-87
2022/05/03 07:42:55;;;;;;;15.30;14.00;;;14.70;99.90;;;;;;5083829;28;20707;-87
2022/05/03 07:45:22;;;;;;;14.50;13.20;;;14.80;99.90;;;;;;5083136;28;20664;-87
2022/05/03 07:47:49;;;;;;;19.97;13.70;;;14.90;99.90;;;;;;5080635;28;20658;-87
2022/05/03 07:50:16;;;;;;;18.27;16.87;;;15.00;99.90;;;;;;5083600;28;20624;-87
2022/05/03 07:52:45;;;;;;;15.77;14.57;;;15.00;99.90;;;;;;5078739;28;20989;-87
2022/05/03 07:55:12;;;;;;;14.87;13.83;;;15.10;99.90;;;;;;5082015;28;21068;-87
2022/05/03 07:57:39;;;;;;;13.80;12.70;;;15.10;99.90;;;;;;5081196;28;20656;-87
2022/05/03 08:00:08;;;;;;;13.20;12.10;;;15.10;99.90;;;;;;5083953;28;20643;-87
2022/05/03 08:02:35;;;;;;;14.00;12.60;;;15.10;99.90;;;;;;5076458;28;20650;-87
2022/05/03 08:05:02;;;;;;;14.20;13.10;;;15.30;99.90;;;;;;5078912;28;20674;-87
2022/05/03 08:07:28;;;;;;;13.97;12.87;;;15.30;99.90;;;;;;5078804;28;20648;-87
2022/05/03 08:09:56;;;;;;;13.20;12.20;;;15.40;99.90;;;;;;5084398;28;20646;-87
2022/05/03 08:12:26;;;;;;;16.90;15.50;;;15.60;99.90;;;;;;5085490;28;20632;-88
2022/05/03 08:14:53;;;;;;;11.80;10.70;;;15.70;99.90;;;;;;5079917;28;20629;-87
2022/05/03 08:17:20;;;;;;;12.13;11.23;;;15.70;99.90;;;;;;5082463;28;20722;-88
2022/05/03 08:19:47;;;;;;;12.60;11.37;;;15.70;99.90;;;;;;5078927;28;23461;-87
2022/05/03 08:22:13;;;;;;;11.27;10.37;;;15.80;99.90;;;;;;5080004;28;20606;-88
2022/05/03 08:24:40;;;;;;;10.83;10.03;;;15.80;99.90;;;;;;5077702;28;20628;-88
2022/05/03 08:27:08;;;;;;;11.17;10.03;;;15.90;99.90;;;;;;5080308;28;20668;-88
2022/05/03 08:29:35;;;;;;;12.40;11.47;;;16.10;99.90;;;;;;5081944;28;20702;-88
2022/05/03 08:32:03;;;;;;;11.63;10.63;;;16.10;99.90;;;;;;5084716;28;20632;-88
2022/05/03 08:34:30;;;;;;;10.40;9.50;;;16.20;99.90;;;;;;5081243;28;20667;-87
2022/05/03 08:42:28;;;;;;;10.50;9.57;;;16.90;99.90;;;;;;5082803;28;20598;-88
2022/05/03 08:44:56;;;;;;;7.27;6.77;;;17.00;99.90;;;;;;5079080;28;21194;-88
2022/05/03 08:47:26;;;;;;;9.10;8.40;;;17.10;99.90;;;;;;5079711;28;20648;-88
2022/05/03 08:50:00;;;;;;;7.57;7.07;;;17.30;99.90;;;;;;5081262;28;20630;-88
2022/05/03 08:52:29;;;;;;;8.77;8.07;;;17.40;99.90;;;;;;5080989;28;21275;-88
2022/05/03 08:55:00;;;;;;;9.57;8.73;;;17.40;99.90;;;;;;5084139;28;20617;-88
2022/05/03 08:57:28;;;;;;;10.13;9.37;;;17.50;99.90;;;;;;5080659;28;20686;-88
2022/05/03 08:59:55;;;;;;;9.17;8.50;;;17.70;99.90;;;;;;5083235;28;21073;-88
2022/05/03 09:02:22;;;;;;;8.83;8.03;;;17.80;99.90;;;;;;5078686;28;20650;-88
2022/05/03 09:04:49;;;;;;;7.93;7.40;;;17.90;99.90;;;;;;5079735;28;20608;-88
2022/05/03 09:07:21;;;;;;;7.13;6.63;;;18.00;99.90;;;;;;5084017;28;20667;-88
2022/05/03 09:09:48;;;;;;;8.63;7.93;;;18.10;99.90;;;;;;5078189;28;20625;-89
2022/05/03 09:12:23;;;;;;;7.90;7.30;;;18.20;99.90;;;;;;5077373;28;20724;-88
2022/05/03 09:14:52;;;;;;;7.10;6.60;;;18.40;99.90;;;;;;5081626;28;21562;-88
2022/05/03 09:17:37;;;;;;;7.27;6.70;;;18.50;99.90;;;;;;5078863;28;20711;-87
2022/05/03 09:25:41;;;;;;;7.00;6.40;;;18.90;99.90;;;;;;5081990;28;21032;-87
2022/05/03 09:28:08;;;;;;;6.33;5.83;;;19.10;99.90;;;;;;5082294;28;20647;-87
2022/05/03 09:30:46;;;;;;;7.20;6.60;;;19.20;99.90;;;;;;5083467;28;20943;-87
2022/05/03 09:33:20;;;;;;;6.60;5.97;;;19.50;99.90;;;;;;5081365;28;20649;-87
2022/05/03 09:35:48;;;;;;;6.73;6.20;;;19.70;99.90;;;;;;5076140;28;20722;-88
2022/05/03 09:38:16;;;;;;;6.30;5.87;;;19.80;99.90;;;;;;5079744;28;20648;-88
2022/05/03 09:40:44;;;;;;;6.07;5.67;;;20.00;99.90;;;;;;5078906;28;20690;-88
2022/05/03 09:43:12;;;;;;;7.67;7.00;;;20.10;99.90;;;;;;5079813;28;20632;-88
2022/05/03 09:45:41;;;;;;;6.33;5.93;;;20.10;99.90;;;;;;5081620;28;20654;-87
2022/05/03 09:48:08;;;;;;;5.70;5.30;;;20.10;99.90;;;;;;5073345;28;20762;-87
2022/05/03 09:50:40;;;;;;;6.83;4.90;;;20.20;98.40;;;;;;5076989;28;20741;-87
2022/05/03 09:53:13;;;;;;;4.87;4.57;;;20.30;97.30;;;;;;5077413;28;20624;-87
2022/05/03 09:55:40;;;;;;;6.50;6.10;;;20.30;97.50;;;;;;5075142;28;20627;-87
2022/05/03 09:58:10;;;;;;;5.83;5.27;;;20.40;98.20;;;;;;5081917;28;20648;-87
2022/05/03 10:00:39;;;;;;;4.30;3.60;;;20.50;96.80;;;;;;5080935;28;20643;-87
2022/05/03 10:03:09;;;;;;;4.80;4.50;;;20.60;94.50;;;;;;5079298;28;20771;-87
2022/05/03 10:05:38;;;;;;;4.27;3.97;;;20.70;95.60;;;;;;5079482;28;20986;-87
2022/05/03 10:08:05;;;;;;;3.97;3.67;;;20.70;96.00;;;;;;5077744;28;21324;-87
2022/05/03 10:10:32;;;;;;;4.60;4.30;;;20.80;97.10;;;;;;5076940;28;20646;-87
2022/05/03 10:12:59;;;;;;;4.50;3.90;;;21.10;98.10;;;;;;5083228;28;20620;-87
2022/05/03 10:21:04;;;;;;;4.57;4.27;;;21.40;91.60;;;;;;5078041;28;20719;-88
2022/05/03 10:23:33;;;;;;;4.00;3.70;;;21.50;91.00;;;;;;5080803;28;20681;-88
2022/05/03 10:26:01;;;;;;;3.90;3.63;;;21.60;92.50;;;;;;5086885;28;20620;-87
2022/05/03 10:29:07;;;;;;;3.67;3.33;;;21.80;91.10;;;;;;5077548;28;20649;-87
2022/05/03 10:31:52;;;;;;;4.53;4.23;;;22.00;91.30;;;;;;5082822;28;20693;-87
2022/05/03 10:34:56;;;;;;;4.27;3.97;;;22.20;89.30;;;;;;5084667;28;20624;-88
2022/05/03 10:37:56;;;;;;;3.77;3.47;;;22.50;90.60;;;;;;5085887;28;20709;-88
2022/05/03 10:40:30;;;;;;;3.50;3.20;;;22.60;84.90;;;;;;5079830;28;20672;-88
2022/05/03 10:43:06;;;;;;;3.77;3.57;;;22.80;86.90;;;;;;5080767;28;20727;-88
2022/05/03 10:45:40;;;;;;;3.77;3.50;;;23.00;84.20;;;;;;5083768;28;20632;-89
2022/05/03 10:48:23;;;;;;;3.70;3.40;;;23.30;82.30;;;;;;5083498;28;21124;-89
2022/05/03 10:50:53;;;;;;;4.37;4.00;;;23.60;80.30;;;;;;5080821;28;20640;-88
2022/05/03 10:53:25;;;;;;;6.00;3.97;;;23.80;83.00;;;;;;5077552;28;20995;-89
2022/05/03 10:56:07;;;;;;;5.33;3.70;;;24.00;79.00;;;;;;5079255;28;20670;-88
2022/05/03 10:58:35;;;;;;;4.33;3.93;;;24.20;76.90;;;;;;5083971;28;20660;-89
2022/05/03 11:01:06;;;;;;;5.87;4.30;;;24.40;75.20;;;;;;5081054;28;20672;-88
2022/05/03 11:03:34;;;;;;;3.60;3.33;;;24.60;76.30;;;;;;5078216;28;20642;-89
2022/05/03 11:06:39;;;;;;;4.23;3.87;;;24.80;70.90;;;;;;5079125;28;20601;-88
2022/05/03 11:09:11;;;;;;;4.20;3.47;;;25.00;70.70;;;;;;5078083;28;20750;-88
2022/05/03 11:11:58;;;;;;;8.07;3.73;;;25.30;69.10;;;;;;5084380;28;20723;-88
2022/05/03 11:14:49;;;;;;;4.07;3.77;;;25.40;67.00;;;;;;5080842;28;20621;-89
2022/05/03 11:17:17;;;;;;;6.57;3.63;;;25.30;65.90;;;;;;5078781;28;21027;-88
2022/05/03 11:19:55;;;;;;;3.93;3.50;;;25.50;66.80;;;;;;5080251;28;21476;-89
2022/05/03 11:22:25;;;;;;;3.90;3.60;;;25.80;70.00;;;;;;5083858;28;20660;-88
2022/05/03 11:24:54;;;;;;;3.70;3.50;;;25.80;66.10;;;;;;5077052;28;20623;-88
2022/05/03 11:27:22;;;;;;;4.20;3.23;;;25.50;65.40;;;;;;5074384;28;20663;-89
2022/05/03 11:29:55;;;;;;;3.50;3.20;;;25.00;63.20;;;;;;5081466;28;20716;-88
2022/05/03 11:32:36;;;;;;;4.33;3.27;;;24.90;63.10;;;;;;5080790;28;20980;-89
2022/05/03 11:35:09;;;;;;;3.13;2.93;;;24.80;60.70;;;;;;5079273;28;20625;-88
2022/05/03 11:37:46;;;;;;;3.67;2.67;;;24.90;62.00;;;;;;5082319;28;21154;-88
2022/05/03 11:40:13;;;;;;;4.20;3.90;;;25.20;62.10;;;;;;5079007;28;20735;-88
2022/05/03 11:42:42;;;;;;;4.00;3.70;;;25.30;62.00;;;;;;5080318;28;20608;-88
2022/05/03 11:45:11;;;;;;;4.87;4.33;;;25.20;63.10;;;;;;5079988;28;20640;-87
2022/05/03 11:47:41;;;;;;;4.37;4.17;;;25.40;63.70;;;;;;5081545;28;20644;-88
2022/05/03 11:50:09;;;;;;;4.53;4.13;;;25.60;63.30;;;;;;5080974;28;20659;-88
2022/05/03 11:58:07;;;;;;;4.53;4.07;;;25.40;64.80;;;;;;5082331;28;21168;-86
2022/05/03 12:00:45;;;;;;;5.83;5.40;;;25.10;63.80;;;;;;5081288;28;20636;-86
2022/05/03 12:03:12;;;;;;;4.60;4.30;;;25.10;63.60;;;;;;5081453;28;20897;-87
2022/05/03 12:05:40;;;;;;;4.70;4.37;;;24.90;63.60;;;;;;5080024;28;20623;-87
2022/05/03 12:08:19;;;;;;;6.33;4.97;;;24.80;65.10;;;;;;5081125;28;20979;-86
2022/05/03 12:10:46;;;;;;;4.53;4.23;;;24.60;65.20;;;;;;5080869;28;20656;-87
2022/05/03 12:13:15;;;;;;;4.60;4.30;;;24.30;66.90;;;;;;5074363;28;20612;-87
2022/05/03 12:15:44;;;;;;;4.53;4.20;;;24.10;68.30;;;;;;5076814;28;20625;-87
2022/05/03 12:18:18;;;;;;;3.87;3.57;;;23.80;69.10;;;;;;5077301;28;21257;-87
2022/05/03 12:20:49;;;;;;;3.67;3.47;;;23.60;69.70;;;;;;5077876;28;20979;-87
2022/05/03 12:23:19;;;;;;;3.80;3.60;;;23.30;71.60;;;;;;5082896;28;21177;-87
2022/05/03 12:25:48;;;;;;;3.80;3.50;;;23.30;72.10;;;;;;5071318;28;21190;-87
2022/05/03 12:28:15;;;;;;;3.87;3.53;;;23.10;72.80;;;;;;5073518;28;20655;-86
2022/05/03 12:30:42;;;;;;;3.90;3.60;;;22.80;73.00;;;;;;5078354;28;20626;-86
2022/05/03 12:33:15;;;;;;;4.87;3.53;;;22.40;74.20;;;;;;5080745;28;20616;-88
2022/05/03 12:35:44;;;;;;;4.27;3.87;;;22.30;75.80;;;;;;5079403;28;20638;-89
2022/05/03 12:38:13;;;;;;;4.47;3.80;;;22.00;77.10;;;;;;5077580;28;21252;-88
2022/05/03 12:40:49;;;;;;;5.17;3.60;;;21.40;84.90;;;;;;5080492;28;20624;-87
2022/05/03 12:43:21;;;;;;;5.47;5.00;;;21.00;94.50;;;;;;5077659;28;20758;-87
2022/05/03 12:45:58;;;;;;;11.83;6.23;;;20.60;99.90;;;;;;5080998;28;20634;-86
2022/05/03 12:48:25;;;;;;;12.47;6.30;;;20.00;99.90;;;;;;5081792;28;20639;-85
2022/05/03 12:50:53;;;;;;;6.80;6.10;;;18.70;99.90;;;;;;5076695;28;20629;-86
2022/05/03 12:53:23;;;;;;;7.67;7.07;;;17.90;99.90;;;;;;5080068;28;20659;-86
2022/05/03 12:55:55;;;;;;;8.23;6.80;;;18.00;99.90;;;;;;5078788;28;20659;-86
2022/05/03 12:58:25;;;;;;;13.10;6.60;;;17.90;99.90;;;;;;5079968;28;20755;-86
2022/05/03 13:00:53;;;;;;;8.70;7.07;;;17.40;99.90;;;;;;5079465;28;20664;-86
2022/05/03 13:03:21;;;;;;;9.50;7.13;;;17.20;99.90;;;;;;5080284;28;20648;-86
2022/05/03 13:05:48;;;;;;;7.80;7.03;;;16.90;99.90;;;;;;5077514;28;20663;-87
2022/05/03 13:08:15;;;;;;;7.80;7.20;;;16.80;99.90;;;;;;5079951;28;20660;-87
2022/05/03 13:10:41;;;;;;;7.33;6.70;;;16.70;99.90;;;;;;5083139;28;20898;-87
2022/05/03 13:13:10;;;;;;;7.37;6.67;;;16.80;99.90;;;;;;5078520;28;20643;-86
2022/05/03 13:15:38;;;;;;;6.93;6.10;;;16.80;99.90;;;;;;5082440;28;20644;-87
2022/05/03 13:18:06;;;;;;;7.13;6.30;;;16.70;99.90;;;;;;5079516;28;20785;-86
2022/05/03 13:20:34;;;;;;;6.87;6.17;;;16.70;99.90;;;;;;5077719;28;20631;-86
2022/05/03 13:23:01;;;;;;;6.27;5.77;;;16.70;99.90;;;;;;5078240;28;20617;-86
2022/05/03 13:25:28;;;;;;;7.03;6.43;;;16.60;99.90;;;;;;5077349;28;21186;-86
2022/05/03 13:27:55;;;;;;;7.40;6.80;;;16.40;99.90;;;;;;5083556;28;20652;-86
2022/05/03 13:30:24;;;;;;;7.40;6.70;;;16.30;99.90;;;;;;5082493;28;20628;-87
2022/05/03 13:32:51;;;;;;;8.20;7.40;;;16.30;99.90;;;;;;5079507;28;20651;-86
2022/05/03 13:40:28;;;;;;;10.23;7.70;;;16.30;99.90;;;;;;5076066;28;20630;-86